Oriana — ZCDU9 — position and weather

sailwx.info

Track history (hours):
 
Tides and Currents Weather Stations Pressure Air Temp Water Temp Dewpoint Dewpoint Depression Visibility Wind Speed Wind Dir Waves Ship Positions

Oriana (Bermuda)

Last reported at 2019-Dec-14 15:02 UTC. Time now 2019-Dec-15 11:01 UTC.
Position N 32°30' E 128°26'.

Length 261 m; beam 32.2 m; draft 8.2 m.

Type: Ship. MMSI: 310529000.

Date/timePositionNaut miles runAvg speedWind from/ knotsBaromVisibWave heightAir tempDewpointWater temp
2019-Dec-14 15:02N 32°30' E 128°26'2 8.0
2019-Dec-14 14:47N 32°30' E 128°28'1114.9
2019-Dec-14 14:02N 32°29' E 128°41'5414.4
2019-Dec-14 10:17N 32°43' E 129°43'7 7.4
2019-Dec-14 09:17N 32°44' E 129°52'22 1.7
2019-Dec-13 20:17N 32°38' E 129°27'5515.8
2019-Dec-13 16:47N 32°30' E 128°23'30410.7
2019-Dec-12 12:26N 31°05' E 122°39'62 5.5
2019-Dec-12 01:15N 31°25' E 121°30'0 0.0
2019-Dec-12 00:18N 31°25' E 121°30'0 0.0
2019-Dec-11 23:54N 31°25' E 121°30'0 0.0
2019-Dec-11 22:28N 31°25' E 121°30'9 6.3
2019-Dec-11 21:00N 31°21' E 121°40'1912.7
2019-Dec-11 19:30N 31°15' E 122°01'36713.5
2019-Dec-10 16:15N 33°32' E 128°44'2412.0
2019-Dec-10 14:17N 33°43' E 129°09'2013.0
2019-Dec-10 12:46N 33°52' E 129°31'612.7
2019-Dec-10 12:18N 33°54' E 129°37'  
2019-Dec-06 21:04N 31°21' E 121°40'211.3
2019-Dec-06 20:56N 31°20' E 121°42'1112.1
2019-Dec-06 20:00N 31°16' E 121°54'713.9
2019-Dec-06 19:30N 31°15' E 122°02'  
Track history (hours):
 
Tides and Currents Weather Stations Pressure Air Temp Water Temp Dewpoint Dewpoint Depression Visibility Wind Speed Wind Dir Waves Ship Positions

Oriana (Bermuda)

Last reported at 2019-Dec-14 15:02 UTC. Time now 2019-Dec-15 11:01 UTC.
Position N 32°30' E 128°26'.

Length 261 m; beam 32.2 m; draft 8.2 m.

Type: Ship. MMSI: 310529000.

Date/timePositionNaut miles runAvg speedWind from/ knotsBaromVisibWave heightAir tempDewpointWater temp
2019-Dec-14 15:02N 32°30' E 128°26'2 8.0
2019-Dec-14 14:47N 32°30' E 128°28'1114.9
2019-Dec-14 14:02N 32°29' E 128°41'5414.4
2019-Dec-14 10:17N 32°43' E 129°43'7 7.4
2019-Dec-14 09:17N 32°44' E 129°52'22 1.7
2019-Dec-13 20:17N 32°38' E 129°27'5515.8
2019-Dec-13 16:47N 32°30' E 128°23'30410.7
2019-Dec-12 12:26N 31°05' E 122°39'62 5.5
2019-Dec-12 01:15N 31°25' E 121°30'0 0.0
2019-Dec-12 00:18N 31°25' E 121°30'0 0.0
2019-Dec-11 23:54N 31°25' E 121°30'0 0.0
2019-Dec-11 22:28N 31°25' E 121°30'9 6.3
2019-Dec-11 21:00N 31°21' E 121°40'1912.7
2019-Dec-11 19:30N 31°15' E 122°01'36713.5
2019-Dec-10 16:15N 33°32' E 128°44'2412.0
2019-Dec-10 14:17N 33°43' E 129°09'2013.0
2019-Dec-10 12:46N 33°52' E 129°31'612.7
2019-Dec-10 12:18N 33°54' E 129°37'  
2019-Dec-06 21:04N 31°21' E 121°40'211.3
2019-Dec-06 20:56N 31°20' E 121°42'1112.1
2019-Dec-06 20:00N 31°16' E 121°54'713.9
2019-Dec-06 19:30N 31°15' E 122°02'  

Dump ship's entire track history